sensor_id;sensor_type;location;lat;lon;timestamp;pressure;altitude;pressure_sealevel;temperature;humidity
19783;BME280;10051;40.294;-3.754;2023-05-12T00:01:02;94188.53;;;16.26;32.99
19783;BME280;10051;40.294;-3.754;2023-05-12T00:03:27;94209.13;;;16.38;33.15
19783;BME280;10051;40.294;-3.754;2023-05-12T00:05:53;94220.38;;;16.44;33.60
19783;BME280;10051;40.294;-3.754;2023-05-12T00:08:19;94231.44;;;16.37;33.65
19783;BME280;10051;40.294;-3.754;2023-05-12T00:10:44;94228.50;;;16.39;33.81
19783;BME280;10051;40.294;-3.754;2023-05-12T00:13:10;94203.22;;;16.24;33.84
19783;BME280;10051;40.294;-3.754;2023-05-12T00:15:36;94221.78;;;16.32;34.09
19783;BME280;10051;40.294;-3.754;2023-05-12T00:18:02;94179.66;;;16.04;33.97
19783;BME280;10051;40.294;-3.754;2023-05-12T00:20:27;94213.50;;;16.34;34.00
19783;BME280;10051;40.294;-3.754;2023-05-12T00:22:53;94210.72;;;16.22;34.13
19783;BME280;10051;40.294;-3.754;2023-05-12T00:25:18;94211.16;;;16.15;34.73
19783;BME280;10051;40.294;-3.754;2023-05-12T00:27:44;94191.66;;;15.93;35.03
19783;BME280;10051;40.294;-3.754;2023-05-12T00:30:10;94216.00;;;16.13;34.54
19783;BME280;10051;40.294;-3.754;2023-05-12T00:32:38;94203.53;;;16.04;35.13
19783;BME280;10051;40.294;-3.754;2023-05-12T00:35:04;94198.84;;;16.19;34.59
19783;BME280;10051;40.294;-3.754;2023-05-12T00:37:30;94219.13;;;16.32;34.96
19783;BME280;10051;40.294;-3.754;2023-05-12T00:39:55;94202.75;;;16.04;35.18
19783;BME280;10051;40.294;-3.754;2023-05-12T00:42:21;94219.59;;;15.99;35.75
19783;BME280;10051;40.294;-3.754;2023-05-12T00:44:46;94213.34;;;16.13;35.27
19783;BME280;10051;40.294;-3.754;2023-05-12T00:47:12;94194.47;;;15.88;35.86
19783;BME280;10051;40.294;-3.754;2023-05-12T00:49:38;94194.88;;;15.72;36.21
19783;BME280;10051;40.294;-3.754;2023-05-12T00:52:07;94200.66;;;15.74;36.47
19783;BME280;10051;40.294;-3.754;2023-05-12T00:54:34;94205.81;;;15.71;36.55
19783;BME280;10051;40.294;-3.754;2023-05-12T00:57:00;94166.94;;;15.57;36.04
19783;BME280;10051;40.294;-3.754;2023-05-12T00:59:26;94187.09;;;15.85;36.15
19783;BME280;10051;40.294;-3.754;2023-05-12T01:01:52;94170.06;;;15.51;36.85
19783;BME280;10051;40.294;-3.754;2023-05-12T01:04:18;94174.72;;;15.36;36.89
19783;BME280;10051;40.294;-3.754;2023-05-12T01:07:02;94174.44;;;15.46;37.11
19783;BME280;10051;40.294;-3.754;2023-05-12T01:09:30;94178.22;;;15.63;36.99
19783;BME280;10051;40.294;-3.754;2023-05-12T01:11:55;94169.47;;;15.71;36.59
19783;BME280;10051;40.294;-3.754;2023-05-12T01:14:26;94190.66;;;15.63;37.13
19783;BME280;10051;40.294;-3.754;2023-05-12T01:16:53;94183.34;;;15.68;37.18
19783;BME280;10051;40.294;-3.754;2023-05-12T01:19:49;94183.50;;;15.81;37.10
19783;BME280;10051;40.294;-3.754;2023-05-12T01:22:16;94187.91;;;15.94;36.91
19783;BME280;10051;40.294;-3.754;2023-05-12T01:24:54;94137.97;;;15.61;37.09
19783;BME280;10051;40.294;-3.754;2023-05-12T01:27:20;94113.63;;;15.41;36.93
19783;BME280;10051;40.294;-3.754;2023-05-12T01:29:47;94182.25;;;15.69;37.30
19783;BME280;10051;40.294;-3.754;2023-05-12T01:32:14;94183.50;;;15.81;37.05
19783;BME280;10051;40.294;-3.754;2023-05-12T01:34:41;94185.69;;;15.61;37.64
19783;BME280;10051;40.294;-3.754;2023-05-12T01:37:08;94179.38;;;15.39;37.95
19783;BME280;10051;40.294;-3.754;2023-05-12T01:39:34;94152.22;;;15.25;38.10
19783;BME280;10051;40.294;-3.754;2023-05-12T01:42:01;94173.97;;;15.53;38.00
19783;BME280;10051;40.294;-3.754;2023-05-12T01:44:27;94132.03;;;15.46;37.80
19783;BME280;10051;40.294;-3.754;2023-05-12T01:46:52;94158.53;;;15.46;37.67
19783;BME280;10051;40.294;-3.754;2023-05-12T01:49:18;94152.75;;;15.44;38.06
19783;BME280;10051;40.294;-3.754;2023-05-12T01:51:43;94159.97;;;15.79;37.27
19783;BME280;10051;40.294;-3.754;2023-05-12T01:54:09;94171.34;;;15.71;37.73
19783;BME280;10051;40.294;-3.754;2023-05-12T01:56:35;94174.31;;;15.78;37.30
19783;BME280;10051;40.294;-3.754;2023-05-12T01:59:00;94146.56;;;15.67;37.43
19783;BME280;10051;40.294;-3.754;2023-05-12T02:01:26;94144.84;;;15.80;36.93
19783;BME280;10051;40.294;-3.754;2023-05-12T02:03:56;94172.63;;;15.91;37.17
19783;BME280;10051;40.294;-3.754;2023-05-12T02:06:22;94182.63;;;15.94;37.27
19783;BME280;10051;40.294;-3.754;2023-05-12T02:08:48;94163.59;;;15.92;37.21
19783;BME280;10051;40.294;-3.754;2023-05-12T02:11:14;94131.13;;;15.69;37.34
19783;BME280;10051;40.294;-3.754;2023-05-12T02:13:40;94140.78;;;15.65;37.50
19783;BME280;10051;40.294;-3.754;2023-05-12T02:16:06;94150.91;;;15.45;38.13
19783;BME280;10051;40.294;-3.754;2023-05-12T02:18:32;94156.53;;;15.61;37.73
19783;BME280;10051;40.294;-3.754;2023-05-12T02:20:58;94172.38;;;15.43;38.42
19783;BME280;10051;40.294;-3.754;2023-05-12T02:23:23;94138.03;;;15.12;38.56
19783;BME280;10051;40.294;-3.754;2023-05-12T02:25:49;94161.16;;;14.89;39.45
19783;BME280;10051;40.294;-3.754;2023-05-12T02:28:14;94177.78;;;14.80;40.24
19783;BME280;10051;40.294;-3.754;2023-05-12T02:30:44;94150.03;;;14.69;39.83
19783;BME280;10051;40.294;-3.754;2023-05-12T02:33:11;94173.84;;;15.00;39.57
19783;BME280;10051;40.294;-3.754;2023-05-12T02:35:37;94171.72;;;14.80;40.51
19783;BME280;10051;40.294;-3.754;2023-05-12T02:38:02;94170.59;;;14.49;40.99
19783;BME280;10051;40.294;-3.754;2023-05-12T02:40:29;94181.88;;;14.64;41.14
19783;BME280;10051;40.294;-3.754;2023-05-12T02:42:54;94184.00;;;14.76;40.84
19783;BME280;10051;40.294;-3.754;2023-05-12T02:45:20;94156.31;;;14.82;40.39
19783;BME280;10051;40.294;-3.754;2023-05-12T02:47:46;94169.16;;;14.97;40.30
19783;BME280;10051;40.294;-3.754;2023-05-12T02:50:14;94182.16;;;15.16;39.97
19783;BME280;10051;40.294;-3.754;2023-05-12T02:52:40;94181.34;;;15.16;40.23
19783;BME280;10051;40.294;-3.754;2023-05-12T02:55:06;94173.59;;;15.28;39.69
19783;BME280;10051;40.294;-3.754;2023-05-12T02:57:32;94151.75;;;15.14;40.14
19783;BME280;10051;40.294;-3.754;2023-05-12T02:59:59;94160.34;;;15.20;40.16
19783;BME280;10051;40.294;-3.754;2023-05-12T03:02:24;94173.75;;;14.83;41.27
19783;BME280;10051;40.294;-3.754;2023-05-12T03:04:50;94148.84;;;14.61;41.46
19783;BME280;10051;40.294;-3.754;2023-05-12T03:07:16;94120.25;;;14.32;42.96
19783;BME280;10051;40.294;-3.754;2023-05-12T03:09:41;94175.00;;;14.85;42.31
19783;BME280;10051;40.294;-3.754;2023-05-12T03:12:07;94125.94;;;14.48;41.81
19783;BME280;10051;40.294;-3.754;2023-05-12T03:14:33;94148.38;;;14.59;42.67
19783;BME280;10051;40.294;-3.754;2023-05-12T03:16:58;94151.69;;;14.65;42.52
19783;BME280;10051;40.294;-3.754;2023-05-12T03:19:24;94158.44;;;14.48;42.79
19783;BME280;10051;40.294;-3.754;2023-05-12T03:21:50;94140.53;;;14.45;42.84
19783;BME280;10051;40.294;-3.754;2023-05-12T03:24:17;94150.38;;;14.53;42.36
19783;BME280;10051;40.294;-3.754;2023-05-12T03:26:45;94144.31;;;14.53;43.53
19783;BME280;10051;40.294;-3.754;2023-05-12T03:29:12;94152.41;;;14.56;42.65
19783;BME280;10051;40.294;-3.754;2023-05-12T03:31:38;94138.38;;;14.70;42.19
19783;BME280;10051;40.294;-3.754;2023-05-12T03:34:04;94137.81;;;14.91;41.87
19783;BME280;10051;40.294;-3.754;2023-05-12T03:36:30;94136.22;;;14.58;42.80
19783;BME280;10051;40.294;-3.754;2023-05-12T03:38:56;94137.88;;;14.45;42.89
19783;BME280;10051;40.294;-3.754;2023-05-12T03:41:21;94129.91;;;14.36;42.95
19783;BME280;10051;40.294;-3.754;2023-05-12T03:43:47;94145.44;;;14.61;42.70
19783;BME280;10051;40.294;-3.754;2023-05-12T03:46:13;94147.84;;;14.48;43.14
19783;BME280;10051;40.294;-3.754;2023-05-12T03:48:39;94102.47;;;14.23;42.91
19783;BME280;10051;40.294;-3.754;2023-05-12T03:51:05;94138.56;;;14.51;42.73
19783;BME280;10051;40.294;-3.754;2023-05-12T03:53:30;94141.00;;;14.70;42.59
19783;BME280;10051;40.294;-3.754;2023-05-12T03:55:56;94153.50;;;14.55;42.70
19783;BME280;10051;40.294;-3.754;2023-05-12T03:58:22;94150.50;;;14.71;42.31
19783;BME280;10051;40.294;-3.754;2023-05-12T04:00:48;94144.44;;;14.79;42.50
19783;BME280;10051;40.294;-3.754;2023-05-12T04:03:15;94131.72;;;14.58;42.58
19783;BME280;10051;40.294;-3.754;2023-05-12T04:05:41;94151.50;;;14.61;42.62
19783;BME280;10051;40.294;-3.754;2023-05-12T04:08:07;94153.88;;;14.40;43.55
19783;BME280;10051;40.294;-3.754;2023-05-12T04:10:40;94117.84;;;14.21;43.20
19783;BME280;10051;40.294;-3.754;2023-05-12T04:13:07;94140.56;;;14.22;43.73
19783;BME280;10051;40.294;-3.754;2023-05-12T04:15:36;94146.41;;;14.10;44.46
19783;BME280;10051;40.294;-3.754;2023-05-12T04:18:02;94147.66;;;14.13;44.15
19783;BME280;10051;40.294;-3.754;2023-05-12T04:20:28;94136.25;;;14.26;43.75
19783;BME280;10051;40.294;-3.754;2023-05-12T04:22:53;94130.34;;;14.30;43.44
19783;BME280;10051;40.294;-3.754;2023-05-12T04:25:19;94138.88;;;14.26;43.84
19783;BME280;10051;40.294;-3.754;2023-05-12T04:27:45;94149.19;;;14.37;43.69
19783;BME280;10051;40.294;-3.754;2023-05-12T04:30:11;94136.50;;;14.48;43.18
19783;BME280;10051;40.294;-3.754;2023-05-12T04:32:36;94084.97;;;14.13;43.10
19783;BME280;10051;40.294;-3.754;2023-05-12T04:35:02;94128.47;;;14.62;42.56
19783;BME280;10051;40.294;-3.754;2023-05-12T04:37:28;94149.94;;;14.60;43.23
19783;BME280;10051;40.294;-3.754;2023-05-12T04:39:53;94116.03;;;14.31;43.41
19783;BME280;10051;40.294;-3.754;2023-05-12T04:42:19;94126.78;;;14.34;43.19
19783;BME280;10051;40.294;-3.754;2023-05-12T04:44:44;94096.34;;;13.91;43.96
19783;BME280;10051;40.294;-3.754;2023-05-12T04:47:11;94104.47;;;13.95;44.17
19783;BME280;10051;40.294;-3.754;2023-05-12T04:49:37;94115.94;;;14.13;43.90
19783;BME280;10051;40.294;-3.754;2023-05-12T04:52:03;94129.56;;;14.29;43.68
19783;BME280;10051;40.294;-3.754;2023-05-12T04:54:30;94123.50;;;14.28;43.19
19783;BME280;10051;40.294;-3.754;2023-05-12T04:56:59;94109.19;;;14.30;43.12
19783;BME280;10051;40.294;-3.754;2023-05-12T04:59:24;94102.34;;;14.06;43.78
19783;BME280;10051;40.294;-3.754;2023-05-12T05:01:50;94128.97;;;14.09;43.99
19783;BME280;10051;40.294;-3.754;2023-05-12T05:04:15;94137.31;;;14.03;44.34
19783;BME280;10051;40.294;-3.754;2023-05-12T05:06:41;94141.03;;;13.79;44.90
19783;BME280;10051;40.294;-3.754;2023-05-12T05:09:06;94105.19;;;13.50;44.97
19783;BME280;10051;40.294;-3.754;2023-05-12T05:11:33;94118.78;;;13.57;45.53
19783;BME280;10051;40.294;-3.754;2023-05-12T05:13:58;94133.09;;;13.79;45.18
19783;BME280;10051;40.294;-3.754;2023-05-12T05:16:24;94123.84;;;13.67;44.94
19783;BME280;10051;40.294;-3.754;2023-05-12T05:18:49;94138.28;;;13.84;45.00
19783;BME280;10051;40.294;-3.754;2023-05-12T05:21:15;94136.72;;;13.83;45.27
19783;BME280;10051;40.294;-3.754;2023-05-12T05:23:41;94125.25;;;13.88;44.62
19783;BME280;10051;40.294;-3.754;2023-05-12T05:26:07;94142.13;;;13.78;45.28
19783;BME280;10051;40.294;-3.754;2023-05-12T05:28:36;94138.72;;;13.63;45.37
19783;BME280;10051;40.294;-3.754;2023-05-12T05:31:04;94099.31;;;13.39;45.21
19783;BME280;10051;40.294;-3.754;2023-05-12T05:33:30;94149.59;;;13.48;45.99
19783;BME280;10051;40.294;-3.754;2023-05-12T05:35:56;94099.94;;;13.22;45.96
19783;BME280;10051;40.294;-3.754;2023-05-12T05:38:22;94113.06;;;13.13;46.35
19783;BME280;10051;40.294;-3.754;2023-05-12T05:40:48;94033.19;;;12.57;46.47
19783;BME280;10051;40.294;-3.754;2023-05-12T05:43:14;94118.53;;;13.45;45.93
19783;BME280;10051;40.294;-3.754;2023-05-12T05:45:40;94151.59;;;15.10;42.40
19783;BME280;10051;40.294;-3.754;2023-05-12T05:48:05;94151.09;;;15.75;40.86
19783;BME280;10051;40.294;-3.754;2023-05-12T05:50:31;94149.63;;;15.34;41.46
19783;BME280;10051;40.294;-3.754;2023-05-12T05:52:57;94140.63;;;14.63;42.83
19783;BME280;10051;40.294;-3.754;2023-05-12T05:55:22;94137.47;;;14.29;43.88
19783;BME280;10051;40.294;-3.754;2023-05-12T05:57:51;94115.50;;;13.74;44.72
19783;BME280;10051;40.294;-3.754;2023-05-12T06:00:16;94108.53;;;13.56;45.22
19783;BME280;10051;40.294;-3.754;2023-05-12T06:02:42;94115.25;;;13.62;45.23
19783;BME280;10051;40.294;-3.754;2023-05-12T06:05:08;94165.91;;;14.01;45.05
19783;BME280;10051;40.294;-3.754;2023-05-12T06:07:34;94137.75;;;13.96;44.57
19783;BME280;10051;40.294;-3.754;2023-05-12T06:09:59;94152.63;;;13.92;44.97
19783;BME280;10051;40.294;-3.754;2023-05-12T06:12:25;94130.41;;;13.56;45.63
19783;BME280;10051;40.294;-3.754;2023-05-12T06:14:50;94148.13;;;13.92;44.99
19783;BME280;10051;40.294;-3.754;2023-05-12T06:17:16;94175.94;;;14.35;44.57
19783;BME280;10051;40.294;-3.754;2023-05-12T06:19:42;94167.47;;;14.47;43.88
19783;BME280;10051;40.294;-3.754;2023-05-12T06:22:12;94160.19;;;14.84;43.03
19783;BME280;10051;40.294;-3.754;2023-05-12T06:24:41;94177.72;;;15.03;43.13
19783;BME280;10051;40.294;-3.754;2023-05-12T06:27:07;94154.03;;;14.98;42.62
19783;BME280;10051;40.294;-3.754;2023-05-12T06:29:33;94189.75;;;15.09;42.78
19783;BME280;10051;40.294;-3.754;2023-05-12T06:31:58;94181.78;;;15.00;42.21
19783;BME280;10051;40.294;-3.754;2023-05-12T06:34:24;94169.88;;;14.89;42.54
19783;BME280;10051;40.294;-3.754;2023-05-12T06:36:50;94185.63;;;14.63;43.29
19783;BME280;10051;40.294;-3.754;2023-05-12T06:39:15;94157.47;;;14.44;43.57
19783;BME280;10051;40.294;-3.754;2023-05-12T06:41:41;94186.19;;;14.82;43.58
19783;BME280;10051;40.294;-3.754;2023-05-12T06:44:06;94128.84;;;14.69;42.84
19783;BME280;10051;40.294;-3.754;2023-05-12T06:46:37;94191.75;;;15.53;42.09
19783;BME280;10051;40.294;-3.754;2023-05-12T06:49:04;94156.38;;;15.75;41.41
19783;BME280;10051;40.294;-3.754;2023-05-12T06:51:29;94134.69;;;15.82;40.52
19783;BME280;10051;40.294;-3.754;2023-05-12T06:53:55;94151.44;;;15.91;40.70
19783;BME280;10051;40.294;-3.754;2023-05-12T06:56:21;94166.41;;;15.87;40.43
19783;BME280;10051;40.294;-3.754;2023-05-12T06:58:47;94140.31;;;15.80;40.54
19783;BME280;10051;40.294;-3.754;2023-05-12T07:01:13;94164.94;;;15.72;40.96
19783;BME280;10051;40.294;-3.754;2023-05-12T07:03:39;94151.28;;;15.87;40.70
19783;BME280;10051;40.294;-3.754;2023-05-12T07:06:05;94134.09;;;15.76;40.84
19783;BME280;10051;40.294;-3.754;2023-05-12T07:08:33;94175.13;;;16.05;40.24
19783;BME280;10051;40.294;-3.754;2023-05-12T07:11:00;94182.56;;;16.56;39.67
19783;BME280;10051;40.294;-3.754;2023-05-12T07:13:25;94171.38;;;16.89;38.62
19783;BME280;10051;40.294;-3.754;2023-05-12T07:15:51;94163.19;;;16.64;39.11
19783;BME280;10051;40.294;-3.754;2023-05-12T07:18:16;94154.25;;;16.77;38.72
19783;BME280;10051;40.294;-3.754;2023-05-12T07:20:42;94148.28;;;16.80;38.23
19783;BME280;10051;40.294;-3.754;2023-05-12T07:23:08;94136.81;;;16.59;37.88
19783;BME280;10051;40.294;-3.754;2023-05-12T07:25:34;94116.13;;;16.34;38.42
19783;BME280;10051;40.294;-3.754;2023-05-12T07:28:00;94170.66;;;16.71;38.91
19783;BME280;10051;40.294;-3.754;2023-05-12T07:30:25;94162.69;;;16.71;38.54
19783;BME280;10051;40.294;-3.754;2023-05-12T07:32:51;94175.28;;;17.00;37.84
19783;BME280;10051;40.294;-3.754;2023-05-12T07:35:17;94129.44;;;17.12;36.67
19783;BME280;10051;40.294;-3.754;2023-05-12T07:37:43;94148.31;;;17.49;36.28
19783;BME280;10051;40.294;-3.754;2023-05-12T07:40:08;94149.22;;;17.53;37.20
19783;BME280;10051;40.294;-3.754;2023-05-12T07:42:34;94097.94;;;17.32;36.45
19783;BME280;10051;40.294;-3.754;2023-05-12T07:45:00;94156.03;;;17.42;36.94
19783;BME280;10051;40.294;-3.754;2023-05-12T07:47:25;94098.03;;;16.75;37.49
19783;BME280;10051;40.294;-3.754;2023-05-12T07:49:53;94169.16;;;17.08;37.36
19783;BME280;10051;40.294;-3.754;2023-05-12T07:52:18;94130.75;;;16.97;36.87
19783;BME280;10051;40.294;-3.754;2023-05-12T07:54:44;94164.63;;;17.39;37.04
19783;BME280;10051;40.294;-3.754;2023-05-12T07:57:09;94130.41;;;17.59;35.75
19783;BME280;10051;40.294;-3.754;2023-05-12T07:59:35;94142.75;;;17.84;35.21
19783;BME280;10051;40.294;-3.754;2023-05-12T08:02:00;94064.41;;;17.18;35.07
19783;BME280;10051;40.294;-3.754;2023-05-12T08:04:27;94161.03;;;17.65;35.93
19783;BME280;10051;40.294;-3.754;2023-05-12T08:06:52;94161.53;;;17.37;35.46
19783;BME280;10051;40.294;-3.754;2023-05-12T08:09:23;94160.13;;;17.61;35.52
19783;BME280;10051;40.294;-3.754;2023-05-12T08:11:51;94121.28;;;17.68;35.14
19783;BME280;10051;40.294;-3.754;2023-05-12T08:14:17;94166.34;;;17.65;35.48
19783;BME280;10051;40.294;-3.754;2023-05-12T08:16:46;94161.63;;;17.71;35.26
19783;BME280;10051;40.294;-3.754;2023-05-12T08:19:12;94144.53;;;17.50;35.08
19783;BME280;10051;40.294;-3.754;2023-05-12T08:21:38;94154.72;;;17.48;35.88
19783;BME280;10051;40.294;-3.754;2023-05-12T08:24:03;94134.03;;;17.33;35.03
19783;BME280;10051;40.294;-3.754;2023-05-12T08:26:32;94177.59;;;18.13;34.12
19783;BME280;10051;40.294;-3.754;2023-05-12T08:29:00;94136.06;;;18.21;33.80
19783;BME280;10051;40.294;-3.754;2023-05-12T08:31:26;94065.19;;;17.82;33.52
19783;BME280;10051;40.294;-3.754;2023-05-12T08:33:52;94132.06;;;18.15;33.83
19783;BME280;10051;40.294;-3.754;2023-05-12T08:36:17;94165.66;;;18.53;33.86
19783;BME280;10051;40.294;-3.754;2023-05-12T08:38:43;94125.72;;;18.53;32.80
19783;BME280;10051;40.294;-3.754;2023-05-12T08:41:18;94166.41;;;18.75;32.84
19783;BME280;10051;40.294;-3.754;2023-05-12T08:43:50;94161.84;;;18.75;32.97
19783;BME280;10051;40.294;-3.754;2023-05-12T08:46:16;94151.72;;;18.81;32.62
19783;BME280;10051;40.294;-3.754;2023-05-12T08:48:44;94120.50;;;18.56;32.90
19783;BME280;10051;40.294;-3.754;2023-05-12T08:51:12;94153.94;;;18.79;33.18
19783;BME280;10051;40.294;-3.754;2023-05-12T08:53:39;94163.06;;;18.90;33.48
19783;BME280;10051;40.294;-3.754;2023-05-12T08:56:06;94127.75;;;18.68;32.43
19783;BME280;10051;40.294;-3.754;2023-05-12T08:58:33;94158.03;;;19.10;33.27
19783;BME280;10051;40.294;-3.754;2023-05-12T09:00:59;94011.31;;;18.19;32.27
19783;BME280;10051;40.294;-3.754;2023-05-12T09:03:30;94154.56;;;18.51;33.18
19783;BME280;10051;40.294;-3.754;2023-05-12T09:05:56;94156.38;;;18.59;32.98
19783;BME280;10051;40.294;-3.754;2023-05-12T09:08:24;94131.28;;;18.60;32.51
19783;BME280;10051;40.294;-3.754;2023-05-12T09:10:50;94130.41;;;18.81;31.73
19783;BME280;10051;40.294;-3.754;2023-05-12T09:13:19;94162.00;;;19.41;31.98
19783;BME280;10051;40.294;-3.754;2023-05-12T09:15:46;94123.03;;;19.36;31.39
19783;BME280;10051;40.294;-3.754;2023-05-12T09:18:13;94096.50;;;19.15;30.90
19783;BME280;10051;40.294;-3.754;2023-05-12T09:20:39;94145.34;;;19.56;30.71
19783;BME280;10051;40.294;-3.754;2023-05-12T09:23:18;94164.44;;;19.21;31.49
19783;BME280;10051;40.294;-3.754;2023-05-12T09:25:44;94155.94;;;18.69;32.50
19783;BME280;10051;40.294;-3.754;2023-05-12T09:28:12;94126.69;;;18.36;32.47
19783;BME280;10051;40.294;-3.754;2023-05-12T09:30:38;94157.50;;;18.83;32.24
19783;BME280;10051;40.294;-3.754;2023-05-12T09:33:11;94165.69;;;19.36;31.15
19783;BME280;10051;40.294;-3.754;2023-05-12T09:35:42;94134.44;;;19.61;29.33
19783;BME280;10051;40.294;-3.754;2023-05-12T09:38:09;94105.78;;;19.46;29.56
19783;BME280;10051;40.294;-3.754;2023-05-12T09:40:35;94146.88;;;19.57;30.92
19783;BME280;10051;40.294;-3.754;2023-05-12T09:43:05;94137.75;;;19.71;30.51
19783;BME280;10051;40.294;-3.754;2023-05-12T09:45:37;94142.69;;;19.31;30.82
19783;BME280;10051;40.294;-3.754;2023-05-12T09:48:10;94124.81;;;19.07;31.30
19783;BME280;10051;40.294;-3.754;2023-05-12T09:50:47;94133.56;;;19.57;31.00
19783;BME280;10051;40.294;-3.754;2023-05-12T09:53:13;94133.63;;;19.86;30.61
19783;BME280;10051;40.294;-3.754;2023-05-12T09:55:45;94113.97;;;19.66;29.55
19783;BME280;10051;40.294;-3.754;2023-05-12T09:58:14;94106.59;;;19.34;29.88
19783;BME280;10051;40.294;-3.754;2023-05-12T10:00:40;94105.00;;;19.58;29.89
19783;BME280;10051;40.294;-3.754;2023-05-12T10:03:11;94093.56;;;19.45;30.08
19783;BME280;10051;40.294;-3.754;2023-05-12T10:05:45;94025.03;;;18.67;29.91
19783;BME280;10051;40.294;-3.754;2023-05-12T10:08:37;94085.16;;;18.93;30.89
19783;BME280;10051;40.294;-3.754;2023-05-12T10:11:03;94054.09;;;18.72;31.32
19783;BME280;10051;40.294;-3.754;2023-05-12T10:13:30;94092.69;;;18.91;30.39
19783;BME280;10051;40.294;-3.754;2023-05-12T10:15:56;94100.06;;;19.07;30.61
19783;BME280;10051;40.294;-3.754;2023-05-12T10:18:25;94076.09;;;19.07;30.20
19783;BME280;10051;40.294;-3.754;2023-05-12T10:20:52;94073.84;;;18.71;31.16
19783;BME280;10051;40.294;-3.754;2023-05-12T10:23:18;94091.59;;;18.92;30.33
19783;BME280;10051;40.294;-3.754;2023-05-12T10:25:44;94097.06;;;19.08;30.59
19783;BME280;10051;40.294;-3.754;2023-05-12T10:28:10;94110.69;;;19.31;30.35
19783;BME280;10051;40.294;-3.754;2023-05-12T10:30:40;94109.06;;;19.68;29.18
19783;BME280;10051;40.294;-3.754;2023-05-12T10:33:07;94109.78;;;19.52;29.57
19783;BME280;10051;40.294;-3.754;2023-05-12T10:35:36;94089.13;;;19.49;29.70
19783;BME280;10051;40.294;-3.754;2023-05-12T10:38:23;94058.25;;;19.48;29.41
19783;BME280;10051;40.294;-3.754;2023-05-12T10:40:58;94103.16;;;19.87;28.91
19783;BME280;10051;40.294;-3.754;2023-05-12T10:43:36;94090.38;;;19.80;27.56
19783;BME280;10051;40.294;-3.754;2023-05-12T10:46:15;94099.59;;;19.42;28.83
19783;BME280;10051;40.294;-3.754;2023-05-12T10:51:31;94093.38;;;19.79;29.53
19783;BME280;10051;40.294;-3.754;2023-05-12T10:54:01;94092.34;;;19.96;28.80
19783;BME280;10051;40.294;-3.754;2023-05-12T10:56:48;94092.81;;;19.85;28.62
19783;BME280;10051;40.294;-3.754;2023-05-12T10:59:19;94099.94;;;19.81;27.87
19783;BME280;10051;40.294;-3.754;2023-05-12T11:04:39;94043.09;;;19.65;27.67
19783;BME280;10051;40.294;-3.754;2023-05-12T11:07:07;94076.28;;;19.80;27.28
19783;BME280;10051;40.294;-3.754;2023-05-12T11:09:35;93980.06;;;18.66;28.57
19783;BME280;10051;40.294;-3.754;2023-05-12T11:12:07;94053.53;;;18.92;28.91
19783;BME280;10051;40.294;-3.754;2023-05-12T11:14:34;94074.97;;;19.08;28.92
19783;BME280;10051;40.294;-3.754;2023-05-12T11:17:00;93983.28;;;18.47;29.06
19783;BME280;10051;40.294;-3.754;2023-05-12T11:19:26;94069.56;;;19.57;28.65
19783;BME280;10051;40.294;-3.754;2023-05-12T11:21:53;94034.06;;;19.69;27.43
19783;BME280;10051;40.294;-3.754;2023-05-12T11:24:20;93985.28;;;19.69;27.17
19783;BME280;10051;40.294;-3.754;2023-05-12T11:26:46;94064.81;;;20.52;26.13
19783;BME280;10051;40.294;-3.754;2023-05-12T11:29:17;94018.22;;;19.89;26.23
19783;BME280;10051;40.294;-3.754;2023-05-12T11:31:46;94056.81;;;20.08;26.81
19783;BME280;10051;40.294;-3.754;2023-05-12T11:34:13;94057.47;;;20.33;26.24
19783;BME280;10051;40.294;-3.754;2023-05-12T11:36:40;94052.81;;;20.62;26.13
19783;BME280;10051;40.294;-3.754;2023-05-12T11:39:12;94046.09;;;21.00;25.83
19783;BME280;10051;40.294;-3.754;2023-05-12T11:41:38;94056.47;;;21.37;25.03
19783;BME280;10051;40.294;-3.754;2023-05-12T11:44:17;94048.28;;;21.30;24.84
19783;BME280;10051;40.294;-3.754;2023-05-12T11:47:13;94051.53;;;21.39;24.87
19783;BME280;10051;40.294;-3.754;2023-05-12T11:49:54;94034.53;;;21.12;24.82
19783;BME280;10051;40.294;-3.754;2023-05-12T11:52:22;94021.91;;;20.93;25.30
19783;BME280;10051;40.294;-3.754;2023-05-12T11:54:55;94011.38;;;20.68;25.87
19783;BME280;10051;40.294;-3.754;2023-05-12T11:57:26;94019.22;;;20.13;26.02
19783;BME280;10051;40.294;-3.754;2023-05-12T12:00:03;94030.06;;;20.04;26.36
19783;BME280;10051;40.294;-3.754;2023-05-12T12:02:29;94033.88;;;20.51;26.24
19783;BME280;10051;40.294;-3.754;2023-05-12T12:04:55;94000.53;;;20.61;25.90
19783;BME280;10051;40.294;-3.754;2023-05-12T12:07:32;94012.06;;;20.81;25.66
19783;BME280;10051;40.294;-3.754;2023-05-12T12:10:14;94020.00;;;21.29;25.30
19783;BME280;10051;40.294;-3.754;2023-05-12T12:12:40;93959.19;;;21.06;25.28
19783;BME280;10051;40.294;-3.754;2023-05-12T12:15:06;94020.75;;;21.65;24.82
19783;BME280;10051;40.294;-3.754;2023-05-12T12:17:32;93994.03;;;21.49;24.81
19783;BME280;10051;40.294;-3.754;2023-05-12T12:19:58;93966.66;;;21.17;24.63
19783;BME280;10051;40.294;-3.754;2023-05-12T12:22:23;93997.56;;;20.98;24.40
19783;BME280;10051;40.294;-3.754;2023-05-12T12:24:49;93974.94;;;20.60;25.04
19783;BME280;10051;40.294;-3.754;2023-05-12T12:27:15;94007.84;;;20.96;24.83
19783;BME280;10051;40.294;-3.754;2023-05-12T12:29:40;94013.31;;;21.19;24.37
19783;BME280;10051;40.294;-3.754;2023-05-12T12:32:06;93983.53;;;21.21;24.15
19783;BME280;10051;40.294;-3.754;2023-05-12T12:34:33;93966.72;;;21.40;23.90
19783;BME280;10051;40.294;-3.754;2023-05-12T12:36:58;93979.34;;;21.79;23.66
19783;BME280;10051;40.294;-3.754;2023-05-12T12:39:24;93967.03;;;21.97;23.31
19783;BME280;10051;40.294;-3.754;2023-05-12T12:41:50;93984.84;;;22.33;23.43
19783;BME280;10051;40.294;-3.754;2023-05-12T12:44:15;93984.13;;;22.36;22.91
19783;BME280;10051;40.294;-3.754;2023-05-12T12:46:42;93985.94;;;22.51;22.58
19783;BME280;10051;40.294;-3.754;2023-05-12T12:49:07;93975.38;;;22.39;22.21
19783;BME280;10051;40.294;-3.754;2023-05-12T12:51:33;93987.34;;;22.45;22.06
19783;BME280;10051;40.294;-3.754;2023-05-12T12:54:02;93992.44;;;22.31;22.10
19783;BME280;10051;40.294;-3.754;2023-05-12T12:56:27;93961.25;;;21.95;22.22